Terminal Aerodrome Forecast
Issued by NWS

Home | Current Version | Previous Version | Text Only | Print | Product List | Glossary On
Versions: 1 2 3 4 5 6 7 8 9 10 11 12 13 14 15 16 17 18 19 20 21 22 23
000
FTUS43 KDLH 200700 AAA
TAFBRD
TAF AMD
KBRD 200701Z 2007/2106 VRB03KT P6SM SCT001
      TEMPO 2007/2011 1SM BR BKN001
     FM201500 29007KT P6SM SCT220
     FM210100 26005KT P6SM SKC=

USA.gov is the U.S. government's official web portal to all federal, state and local government web resources and services.